createdAt,value
2023-03-15T00:04:53.000Z,5.38
2023-03-15T00:09:53.000Z,5.39
2023-03-15T00:14:53.000Z,5.41
2023-03-15T00:19:53.000Z,5.42
2023-03-15T00:24:53.000Z,5.35
2023-03-15T00:29:53.000Z,5.36
2023-03-15T00:34:53.000Z,5.39
2023-03-15T00:39:53.000Z,5.36
2023-03-15T00:44:53.000Z,5.35
2023-03-15T00:49:53.000Z,5.34
2023-03-15T00:54:53.000Z,5.26
2023-03-15T00:59:53.000Z,5.26
2023-03-15T01:04:53.000Z,5.24
2023-03-15T01:09:53.000Z,5.22
2023-03-15T01:14:53.000Z,5.21
2023-03-15T01:19:53.000Z,5.23
2023-03-15T01:24:53.000Z,5.16
2023-03-15T01:29:53.000Z,5.20
2023-03-15T01:34:53.000Z,5.17
2023-03-15T01:39:53.000Z,5.15
2023-03-15T01:44:53.000Z,5.15
2023-03-15T01:50:08.000Z,5.15
2023-03-15T01:54:53.000Z,5.07
2023-03-15T01:59:53.000Z,5.04
2023-03-15T02:04:53.000Z,5.11
2023-03-15T02:09:53.000Z,5.06
2023-03-15T02:14:53.000Z,5.03
2023-03-15T02:19:53.000Z,4.97
2023-03-15T02:24:53.000Z,4.94
2023-03-15T02:29:53.000Z,4.90
2023-03-15T02:34:53.000Z,4.83
2023-03-15T02:39:53.000Z,4.73
2023-03-15T02:44:53.000Z,4.61
2023-03-15T02:49:53.000Z,4.50
2023-03-15T02:54:53.000Z,4.38
2023-03-15T02:59:54.000Z,4.36
2023-03-15T03:04:53.000Z,4.32
2023-03-15T03:09:54.000Z,4.27
2023-03-15T03:14:53.000Z,4.19
2023-03-15T03:19:53.000Z,4.16
2023-03-15T03:24:53.000Z,4.14
2023-03-15T03:29:53.000Z,4.08
2023-03-15T03:34:53.000Z,4.07
2023-03-15T03:39:53.000Z,4.01
2023-03-15T03:44:54.000Z,3.93
2023-03-15T03:49:53.000Z,3.89
2023-03-15T03:54:53.000Z,3.87
2023-03-15T03:59:53.000Z,3.86
2023-03-15T04:04:53.000Z,3.79
2023-03-15T04:09:53.000Z,3.72
2023-03-15T04:14:54.000Z,3.64
2023-03-15T04:19:54.000Z,3.56
2023-03-15T04:24:54.000Z,3.55
2023-03-15T04:29:53.000Z,3.42
2023-03-15T04:34:53.000Z,3.30
2023-03-15T04:39:54.000Z,3.28
2023-03-15T04:44:54.000Z,3.28
2023-03-15T04:49:54.000Z,3.25
2023-03-15T04:54:54.000Z,3.20
2023-03-15T04:59:56.000Z,3.19
2023-03-15T05:04:54.000Z,3.09
2023-03-15T05:09:54.000Z,2.99
2023-03-15T05:14:54.000Z,2.95
2023-03-15T05:19:53.000Z,2.93
2023-03-15T05:24:53.000Z,2.95
2023-03-15T05:29:54.000Z,2.85
2023-03-15T05:34:53.000Z,2.67
2023-03-15T05:39:53.000Z,2.49
2023-03-15T05:44:53.000Z,2.29
2023-03-15T05:49:53.000Z,2.30
2023-03-15T05:54:53.000Z,2.24
2023-03-15T05:59:53.000Z,2.23
2023-03-15T06:04:54.000Z,2.29
2023-03-15T06:09:53.000Z,2.25
2023-03-15T06:14:53.000Z,2.31
2023-03-15T06:19:53.000Z,2.39
2023-03-15T06:24:53.000Z,2.42
2023-03-15T06:29:53.000Z,2.38
2023-03-15T06:34:53.000Z,2.36
2023-03-15T06:39:53.000Z,2.32
2023-03-15T06:44:53.000Z,2.32
2023-03-15T06:49:53.000Z,2.39
2023-03-15T06:54:54.000Z,2.46
2023-03-15T06:59:53.000Z,2.62
2023-03-15T07:04:53.000Z,2.83
2023-03-15T07:09:53.000Z,2.96
2023-03-15T07:14:54.000Z,3.13
2023-03-15T07:19:54.000Z,3.35
2023-03-15T07:24:54.000Z,3.74
2023-03-15T07:29:53.000Z,5.86
2023-03-15T07:34:53.000Z,7.84
2023-03-15T07:39:53.000Z,9.69
2023-03-15T07:44:54.000Z,10.81
2023-03-15T07:49:53.000Z,11.40
2023-03-15T07:54:53.000Z,11.72
2023-03-15T07:59:53.000Z,11.27
2023-03-15T08:04:54.000Z,10.63
2023-03-15T08:09:54.000Z,11.08
2023-03-15T08:14:54.000Z,11.68
2023-03-15T08:19:54.000Z,10.92
2023-03-15T08:24:53.000Z,10.80
2023-03-15T08:29:54.000Z,11.53
2023-03-15T08:34:54.000Z,11.39
2023-03-15T08:39:53.000Z,11.49
2023-03-15T08:44:54.000Z,11.03
2023-03-15T08:49:53.000Z,10.63
2023-03-15T08:54:53.000Z,11.30
2023-03-15T08:59:53.000Z,10.80
2023-03-15T09:04:53.000Z,11.11
2023-03-15T09:09:54.000Z,12.13
2023-03-15T09:14:54.000Z,13.78
2023-03-15T09:19:54.000Z,14.53
2023-03-15T09:25:25.000Z,14.12
2023-03-15T09:30:11.000Z,14.65
2023-03-15T09:34:54.000Z,14.92
2023-03-15T09:39:54.000Z,14.42
2023-03-15T09:44:54.000Z,13.78
2023-03-15T09:49:54.000Z,12.46
2023-03-15T09:54:54.000Z,11.11
2023-03-15T09:59:54.000Z,10.37
2023-03-15T10:04:54.000Z,9.94
2023-03-15T10:09:54.000Z,10.06
2023-03-15T10:14:54.000Z,10.18
2023-03-15T10:19:54.000Z,10.50
2023-03-15T10:25:09.000Z,10.38
2023-03-15T10:29:54.000Z,10.70
2023-03-15T10:34:54.000Z,10.81
2023-03-15T10:39:54.000Z,10.72
2023-03-15T10:44:54.000Z,10.67
2023-03-15T10:49:54.000Z,10.07
2023-03-15T10:54:54.000Z,9.56
2023-03-15T10:59:54.000Z,9.21
2023-03-15T11:04:54.000Z,9.24
2023-03-15T11:09:54.000Z,9.33
2023-03-15T11:14:54.000Z,9.24
2023-03-15T11:19:54.000Z,9.35
2023-03-15T11:24:54.000Z,9.37
2023-03-15T11:29:54.000Z,9.41
2023-03-15T11:34:54.000Z,9.29
2023-03-15T11:39:54.000Z,9.10
2023-03-15T11:44:54.000Z,9.15
2023-03-15T11:49:54.000Z,9.32
2023-03-15T11:54:55.000Z,9.50
2023-03-15T11:59:54.000Z,9.66
2023-03-15T12:04:54.000Z,9.37
2023-03-15T12:09:54.000Z,9.21
2023-03-15T12:14:54.000Z,9.26
2023-03-15T12:19:54.000Z,9.37
2023-03-15T12:24:54.000Z,9.16
2023-03-15T12:29:54.000Z,8.96
2023-03-15T12:34:54.000Z,9.11
2023-03-15T12:39:54.000Z,9.21
2023-03-15T12:44:54.000Z,9.21
2023-03-15T12:49:54.000Z,9.32
2023-03-15T12:54:54.000Z,9.42
2023-03-15T12:59:54.000Z,9.56
2023-03-15T13:04:54.000Z,9.76
2023-03-15T13:09:54.000Z,9.79
2023-03-15T13:14:54.000Z,9.81
2023-03-15T13:19:54.000Z,9.96
2023-03-15T13:24:54.000Z,10.01
2023-03-15T13:29:54.000Z,10.20
2023-03-15T13:34:54.000Z,10.27
2023-03-15T13:39:54.000Z,10.43
2023-03-15T13:44:54.000Z,10.53
2023-03-15T13:49:54.000Z,10.42
2023-03-15T13:54:54.000Z,10.18
2023-03-15T13:59:54.000Z,9.92
2023-03-15T14:04:54.000Z,9.85
2023-03-15T14:09:54.000Z,9.95
2023-03-15T14:14:54.000Z,9.98
2023-03-15T14:19:54.000Z,9.83
2023-03-15T14:24:54.000Z,9.69
2023-03-15T14:29:54.000Z,9.61
2023-03-15T14:34:54.000Z,9.52
2023-03-15T14:39:54.000Z,9.46
2023-03-15T14:44:54.000Z,9.47
2023-03-15T14:49:54.000Z,9.44
2023-03-15T14:54:54.000Z,9.59
2023-03-15T14:59:54.000Z,9.82
2023-03-15T15:04:54.000Z,9.85
2023-03-15T15:09:54.000Z,9.86
2023-03-15T15:14:54.000Z,9.68
2023-03-15T15:19:54.000Z,9.51
2023-03-15T15:24:54.000Z,9.55
2023-03-15T15:29:54.000Z,9.69
2023-03-15T15:34:54.000Z,9.85
2023-03-15T15:39:54.000Z,9.91
2023-03-15T15:44:54.000Z,10.03
2023-03-15T15:49:54.000Z,10.06
2023-03-15T15:54:54.000Z,10.04
2023-03-15T15:59:54.000Z,9.95
2023-03-15T16:04:54.000Z,9.84
2023-03-15T16:09:54.000Z,9.66
2023-03-15T16:14:54.000Z,9.46
2023-03-15T16:19:54.000Z,9.37
2023-03-15T16:24:54.000Z,9.30
2023-03-15T16:29:54.000Z,9.21
2023-03-15T16:34:54.000Z,9.02
2023-03-15T16:39:54.000Z,8.89
2023-03-15T16:44:54.000Z,8.77
2023-03-15T16:49:54.000Z,8.70
2023-03-15T16:54:54.000Z,8.55
2023-03-15T16:59:54.000Z,8.43
2023-03-15T17:04:54.000Z,8.33
2023-03-15T17:09:54.000Z,8.23
2023-03-15T17:14:54.000Z,8.09
2023-03-15T17:19:54.000Z,7.97
2023-03-15T17:24:54.000Z,7.75
2023-03-15T17:29:54.000Z,7.57
2023-03-15T17:34:54.000Z,7.34
2023-03-15T17:39:54.000Z,7.16
2023-03-15T17:44:54.000Z,7.01
2023-03-15T17:49:54.000Z,6.73
2023-03-15T17:54:54.000Z,6.53
2023-03-15T17:59:54.000Z,6.24
2023-03-15T18:04:54.000Z,6.07
2023-03-15T18:09:54.000Z,5.94
2023-03-15T18:14:54.000Z,5.78
2023-03-15T18:19:54.000Z,5.65
2023-03-15T18:24:54.000Z,5.61
2023-03-15T18:29:54.000Z,5.51
2023-03-15T18:34:54.000Z,5.34
2023-03-15T18:39:54.000Z,5.16
2023-03-15T18:44:54.000Z,5.06
2023-03-15T18:49:54.000Z,5.01
2023-03-15T18:54:54.000Z,4.84
2023-03-15T18:59:54.000Z,4.86
2023-03-15T19:04:54.000Z,4.82
2023-03-15T19:09:54.000Z,4.76
2023-03-15T19:14:54.000Z,4.71
2023-03-15T19:19:54.000Z,4.62
2023-03-15T19:24:54.000Z,4.49
2023-03-15T19:29:54.000Z,4.35
2023-03-15T19:34:54.000Z,4.24
2023-03-15T19:39:54.000Z,4.14
2023-03-15T19:44:54.000Z,4.03
2023-03-15T19:49:54.000Z,4.03
2023-03-15T19:54:54.000Z,4.00
2023-03-15T19:59:54.000Z,3.97
2023-03-15T20:04:54.000Z,3.90
2023-03-15T20:09:54.000Z,3.83
2023-03-15T20:14:54.000Z,3.76
2023-03-15T20:19:54.000Z,3.62
2023-03-15T20:24:54.000Z,3.58
2023-03-15T20:29:54.000Z,3.56
2023-03-15T20:34:54.000Z,3.55
2023-03-15T20:39:54.000Z,3.29
2023-03-15T20:44:54.000Z,3.42
2023-03-15T20:49:54.000Z,3.33
2023-03-15T20:54:55.000Z,3.24
2023-03-15T20:59:54.000Z,3.19
2023-03-15T21:04:54.000Z,3.14
2023-03-15T21:09:54.000Z,3.09
2023-03-15T21:14:54.000Z,3.04
2023-03-15T21:19:54.000Z,3.10
2023-03-15T21:24:54.000Z,3.09
2023-03-15T21:29:54.000Z,3.01
2023-03-15T21:34:54.000Z,2.91
2023-03-15T21:39:54.000Z,2.81
2023-03-15T21:44:54.000Z,2.73
2023-03-15T21:49:54.000Z,2.66
2023-03-15T21:54:54.000Z,2.61
2023-03-15T21:59:54.000Z,2.53
2023-03-15T22:04:54.000Z,2.54
2023-03-15T22:09:54.000Z,2.49
2023-03-15T22:14:54.000Z,2.51
2023-03-15T22:19:54.000Z,2.47
2023-03-15T22:24:54.000Z,2.47
2023-03-15T22:29:54.000Z,2.45
2023-03-15T22:34:54.000Z,2.40
2023-03-15T22:39:54.000Z,2.39
2023-03-15T22:44:54.000Z,2.37
2023-03-15T22:49:54.000Z,2.26
2023-03-15T22:54:54.000Z,2.23
2023-03-15T22:59:54.000Z,2.21
2023-03-15T23:04:54.000Z,2.21
2023-03-15T23:09:54.000Z,2.15
2023-03-15T23:14:54.000Z,2.09
2023-03-15T23:19:54.000Z,2.06
2023-03-15T23:24:54.000Z,2.01
2023-03-15T23:29:55.000Z,2.01
2023-03-15T23:34:54.000Z,2.02
2023-03-15T23:39:54.000Z,1.98
2023-03-15T23:44:54.000Z,1.99
2023-03-15T23:49:54.000Z,1.96
2023-03-15T23:54:54.000Z,1.91
2023-03-15T23:59:54.000Z,1.86
